Time;durP1;ratioP1;P1;durP2;ratioP2;P2;SDS_P1;SDS_P2;PMS_P1;PMS_P2;Temp;Humidity;BMP_temperature;BMP_pressure;BME280_temperature;BME280_humidity;BME280_pressure;Samples;Min_cycle;Max_cycle;Signal;HPM_P1;HPM_P2
2023/01/25 00:01:51;;;;;;;4.35;2.17;;;2.50;86.50;;;;;;5041972;28;20061;-66
2023/01/25 00:04:21;;;;;;;4.55;3.15;;;2.60;86.50;;;;;;5041703;28;20029;-64
2023/01/25 00:06:47;;;;;;;3.78;2.00;;;2.50;86.30;;;;;;5040336;28;20068;-65
2023/01/25 00:09:14;;;;;;;5.25;2.40;;;2.60;86.60;;;;;;5045511;28;20033;-66
2023/01/25 00:11:39;;;;;;;2.85;1.90;;;2.70;86.70;;;;;;5041171;28;20040;-66
2023/01/25 00:14:05;;;;;;;4.22;1.90;;;2.70;86.50;;;;;;5046016;28;20029;-66
2023/01/25 00:16:31;;;;;;;8.13;3.55;;;2.70;86.30;;;;;;5042366;28;20040;-66
2023/01/25 00:18:57;;;;;;;3.95;2.45;;;2.60;86.10;;;;;;5042690;28;20150;-65
2023/01/25 00:21:24;;;;;;;7.45;2.65;;;2.60;86.40;;;;;;5040086;28;20112;-66
2023/01/25 00:23:50;;;;;;;4.28;2.35;;;2.60;86.60;;;;;;5040438;28;20021;-66
2023/01/25 00:26:16;;;;;;;4.72;2.42;;;2.60;86.40;;;;;;5039749;28;20033;-67
2023/01/25 00:28:42;;;;;;;7.95;3.47;;;2.50;87.10;;;;;;5041437;28;20142;-64
2023/01/25 00:31:15;;;;;;;6.50;2.97;;;2.50;86.60;;;;;;5027997;28;20428;-66
2023/01/25 00:33:54;;;;;;;4.80;2.80;;;2.40;86.50;;;;;;5027616;28;20025;-67
2023/01/25 00:36:31;;;;;;;4.70;2.38;;;2.40;86.80;;;;;;5026086;28;20484;-65
2023/01/25 00:38:57;;;;;;;7.30;3.63;;;2.40;86.50;;;;;;5027207;28;20026;-67
2023/01/25 00:41:23;;;;;;;4.82;2.63;;;2.40;86.70;;;;;;5030299;28;20021;-68
2023/01/25 00:43:49;;;;;;;4.65;2.28;;;2.50;86.90;;;;;;5033045;28;20021;-66
2023/01/25 00:46:16;;;;;;;6.90;3.30;;;2.50;86.60;;;;;;5032167;28;20160;-66
2023/01/25 00:48:41;;;;;;;6.22;3.47;;;2.50;86.40;;;;;;5032790;28;20448;-67
2023/01/25 00:51:07;;;;;;;3.55;1.85;;;2.50;86.40;;;;;;5030968;28;20110;-67
2023/01/25 00:53:33;;;;;;;3.13;1.83;;;2.50;86.40;;;;;;5036693;28;20476;-66
2023/01/25 00:55:59;;;;;;;4.43;2.55;;;2.60;86.30;;;;;;5029905;28;20108;-67
2023/01/25 00:58:25;;;;;;;3.50;2.08;;;2.60;86.20;;;;;;5030257;28;20112;-66
2023/01/25 01:00:55;;;;;;;4.60;2.33;;;2.60;86.20;;;;;;5027956;28;20033;-68
2023/01/25 01:03:21;;;;;;;2.88;2.13;;;2.70;86.30;;;;;;5029641;28;20033;-67
2023/01/25 01:05:46;;;;;;;3.28;1.90;;;2.70;86.20;;;;;;5029457;28;20049;-67
2023/01/25 01:08:13;;;;;;;3.50;1.95;;;2.80;86.20;;;;;;5031977;28;20043;-68
2023/01/25 01:10:39;;;;;;;2.92;1.98;;;2.80;86.00;;;;;;5031300;28;20377;-68
2023/01/25 01:13:05;;;;;;;5.13;2.55;;;2.80;85.80;;;;;;5030009;28;20091;-68
2023/01/25 01:15:34;;;;;;;4.68;2.40;;;2.80;85.70;;;;;;5024859;28;20030;-68
2023/01/25 01:17:59;;;;;;;3.47;1.92;;;2.80;85.80;;;;;;5027277;28;20087;-66
2023/01/25 01:20:25;;;;;;;2.80;1.45;;;2.90;85.70;;;;;;5032147;28;20030;-68
2023/01/25 01:22:54;;;;;;;4.78;2.38;;;2.80;85.40;;;;;;5035408;28;20033;-67
2023/01/25 01:25:19;;;;;;;3.05;1.70;;;2.70;85.50;;;;;;5027039;28;20408;-68
2023/01/25 01:27:45;;;;;;;2.15;1.23;;;2.70;85.70;;;;;;5026148;28;20023;-68
2023/01/25 01:30:10;;;;;;;5.30;2.42;;;2.70;86.00;;;;;;5029997;28;20030;-66
2023/01/25 01:32:36;;;;;;;6.05;2.92;;;2.70;86.00;;;;;;5034763;28;20039;-67
2023/01/25 01:35:01;;;;;;;5.70;2.65;;;2.50;86.50;;;;;;5026550;28;20067;-68
2023/01/25 01:37:27;;;;;;;5.00;2.22;;;2.50;86.20;;;;;;5028457;28;20112;-68
2023/01/25 01:39:53;;;;;;;5.15;2.70;;;2.40;86.50;;;;;;5028169;28;20029;-66
2023/01/25 01:42:18;;;;;;;6.65;3.45;;;2.40;86.30;;;;;;5031114;28;20112;-66
2023/01/25 01:44:52;;;;;;;7.15;3.30;;;2.20;86.10;;;;;;5029904;28;20108;-68
2023/01/25 01:47:33;;;;;;;4.28;2.65;;;2.20;86.70;;;;;;5021329;28;20033;-68
2023/01/25 01:50:03;;;;;;;4.30;2.28;;;2.20;86.70;;;;;;5029531;28;20450;-66
2023/01/25 01:52:36;;;;;;;7.25;3.40;;;2.30;86.80;;;;;;5031397;28;20034;-67
2023/01/25 01:55:07;;;;;;;5.80;2.90;;;2.20;86.50;;;;;;5027863;28;20017;-66
2023/01/25 01:57:42;;;;;;;6.27;3.00;;;2.30;86.80;;;;;;5028516;28;20029;-66
2023/01/25 02:00:11;;;;;;;2.88;1.70;;;2.30;86.60;;;;;;5030713;28;20083;-69
2023/01/25 02:02:37;;;;;;;4.00;2.20;;;2.30;86.50;;;;;;5025746;28;20147;-68
2023/01/25 02:05:05;;;;;;;6.45;3.28;;;2.30;86.40;;;;;;5030086;28;20048;-68
2023/01/25 02:07:35;;;;;;;5.15;2.97;;;2.20;86.20;;;;;;5027020;28;20026;-66
2023/01/25 02:10:03;;;;;;;6.70;3.72;;;2.20;86.50;;;;;;5031101;28;20492;-68
2023/01/25 02:12:29;;;;;;;4.35;2.25;;;2.20;86.70;;;;;;5036168;28;20381;-67
2023/01/25 02:14:54;;;;;;;4.97;2.47;;;2.30;86.60;;;;;;5030155;28;20053;-69
2023/01/25 02:17:33;;;;;;;4.95;2.47;;;2.40;86.60;;;;;;5027756;28;20078;-68
2023/01/25 02:20:16;;;;;;;3.50;2.13;;;2.40;86.40;;;;;;5028559;28;20617;-69
2023/01/25 02:22:53;;;;;;;2.70;2.10;;;2.50;86.20;;;;;;5027363;28;20376;-67
2023/01/25 02:25:20;;;;;;;2.33;1.45;;;2.50;86.70;;;;;;5030050;28;20396;-67
2023/01/25 02:27:50;;;;;;;5.25;2.55;;;2.50;86.20;;;;;;5026822;28;20036;-68
2023/01/25 02:30:16;;;;;;;4.55;2.75;;;2.40;86.10;;;;;;5027458;28;20030;-68
2023/01/25 02:32:41;;;;;;;4.70;2.60;;;2.30;86.00;;;;;;5026123;28;20036;-67
2023/01/25 02:35:18;;;;;;;9.10;3.55;;;2.30;86.40;;;;;;5028817;28;20037;-68
2023/01/25 02:37:43;;;;;;;6.82;3.72;;;2.40;86.40;;;;;;5026279;28;20033;-67
2023/01/25 02:40:09;;;;;;;3.72;2.28;;;2.40;86.50;;;;;;5027726;28;20025;-68
2023/01/25 02:42:35;;;;;;;6.00;3.10;;;2.50;86.30;;;;;;5027277;28;20109;-69
2023/01/25 02:45:04;;;;;;;9.45;4.97;;;2.60;86.10;;;;;;5027779;28;20056;-67
2023/01/25 02:47:30;;;;;;;10.00;4.93;;;2.50;85.70;;;;;;5026511;28;20412;-69
2023/01/25 02:49:55;;;;;;;9.90;4.80;;;2.50;85.60;;;;;;5025814;28;20047;-65
2023/01/25 02:52:21;;;;;;;7.00;3.75;;;2.50;85.70;;;;;;5032656;28;20537;-68
2023/01/25 02:54:46;;;;;;;5.53;2.58;;;2.50;85.70;;;;;;5027001;28;20529;-65
2023/01/25 02:57:12;;;;;;;8.10;4.32;;;2.50;85.60;;;;;;5024977;28;20026;-68
2023/01/25 02:59:37;;;;;;;6.68;3.22;;;2.60;85.60;;;;;;5030930;28;20021;-68
2023/01/25 03:02:03;;;;;;;8.13;3.58;;;2.50;85.40;;;;;;5030605;28;20476;-67
2023/01/25 03:04:28;;;;;;;5.75;3.08;;;2.30;85.30;;;;;;5030836;28;20455;-68
2023/01/25 03:06:54;;;;;;;6.32;2.90;;;2.30;85.60;;;;;;5027678;28;20029;-68
2023/01/25 03:09:19;;;;;;;4.60;2.72;;;2.20;85.90;;;;;;5029022;28;20037;-67
2023/01/25 03:11:45;;;;;;;5.85;3.05;;;2.10;86.00;;;;;;5024557;28;20026;-66
2023/01/25 03:14:10;;;;;;;7.45;3.85;;;2.10;86.20;;;;;;5026694;28;20029;-66
2023/01/25 03:16:36;;;;;;;4.88;2.45;;;2.00;86.50;;;;;;5025705;28;20506;-67
2023/01/25 03:19:02;;;;;;;4.35;2.67;;;2.10;86.80;;;;;;5030334;28;20539;-66
2023/01/25 03:21:27;;;;;;;5.22;2.72;;;2.20;86.80;;;;;;5024149;28;20038;-65
2023/01/25 03:23:58;;;;;;;3.25;1.80;;;2.40;86.60;;;;;;5031632;28;20022;-68
2023/01/25 03:26:25;;;;;;;3.22;1.80;;;2.50;86.40;;;;;;5025895;28;20022;-65
2023/01/25 03:28:50;;;;;;;5.10;2.60;;;2.50;86.20;;;;;;5030819;28;20082;-68
2023/01/25 03:31:17;;;;;;;3.50;2.08;;;2.60;86.00;;;;;;5026387;28;20037;-66
2023/01/25 03:33:42;;;;;;;5.05;2.70;;;2.60;85.90;;;;;;5026663;28;20224;-66
2023/01/25 03:36:09;;;;;;;5.80;3.13;;;2.50;85.40;;;;;;5025941;28;20175;-67
2023/01/25 03:38:35;;;;;;;6.82;3.53;;;2.60;85.80;;;;;;5029794;28;20030;-67
2023/01/25 03:41:01;;;;;;;11.27;5.85;;;2.50;85.80;;;;;;5027136;28;20495;-67
2023/01/25 03:43:27;;;;;;;8.77;4.35;;;2.40;85.60;;;;;;5030054;28;20033;-67
2023/01/25 03:45:55;;;;;;;5.90;3.13;;;2.40;85.70;;;;;;5028710;28;20025;-68
2023/01/25 03:48:21;;;;;;;7.43;3.58;;;2.40;85.90;;;;;;5027924;28;20800;-67
2023/01/25 03:50:51;;;;;;;8.88;3.65;;;2.50;85.70;;;;;;5025919;28;20105;-66
2023/01/25 03:53:28;;;;;;;5.20;2.97;;;2.60;85.60;;;;;;5026564;28;20026;-68
2023/01/25 03:55:57;;;;;;;4.10;2.50;;;2.60;85.50;;;;;;5030129;28;20033;-67
2023/01/25 03:58:23;;;;;;;9.15;4.43;;;2.60;85.50;;;;;;5029480;28;20105;-68
2023/01/25 04:00:49;;;;;;;5.90;2.75;;;2.50;85.50;;;;;;5028440;28;20096;-67
2023/01/25 04:03:16;;;;;;;10.88;4.75;;;2.50;85.70;;;;;;5031359;28;20041;-66
2023/01/25 04:05:42;;;;;;;6.22;3.80;;;2.40;85.60;;;;;;5031140;28;20553;-66
2023/01/25 04:08:07;;;;;;;12.82;5.35;;;2.40;85.60;;;;;;5032750;28;20056;-67
2023/01/25 04:10:33;;;;;;;9.13;4.20;;;2.50;85.70;;;;;;5031376;28;20548;-68
2023/01/25 04:12:58;;;;;;;8.00;3.15;;;2.40;85.60;;;;;;5032945;28;20387;-68
2023/01/25 04:15:24;;;;;;;3.63;2.20;;;2.40;85.60;;;;;;5033484;28;20088;-66
2023/01/25 04:17:50;;;;;;;16.20;6.40;;;2.50;85.70;;;;;;5030672;28;20061;-67
2023/01/25 04:20:15;;;;;;;12.52;5.43;;;2.40;85.30;;;;;;5030860;28;20091;-67
2023/01/25 04:22:41;;;;;;;12.25;6.22;;;2.30;85.40;;;;;;5035556;28;20399;-68
2023/01/25 04:25:07;;;;;;;8.23;4.38;;;2.30;85.60;;;;;;5032364;28;20518;-66
2023/01/25 04:27:32;;;;;;;11.95;4.22;;;2.30;85.60;;;;;;5030274;28;20030;-68
2023/01/25 04:29:58;;;;;;;6.35;2.92;;;2.30;85.80;;;;;;5031208;28;20037;-68
2023/01/25 04:32:23;;;;;;;3.90;2.53;;;2.40;85.60;;;;;;5032695;28;20032;-67
2023/01/25 04:34:49;;;;;;;7.45;3.08;;;2.30;85.50;;;;;;5028527;28;20092;-68
2023/01/25 04:37:14;;;;;;;6.70;3.33;;;2.20;85.40;;;;;;5029171;28;20586;-68
2023/01/25 04:39:40;;;;;;;6.25;2.97;;;2.20;85.90;;;;;;5030839;28;20041;-67
2023/01/25 04:42:06;;;;;;;8.13;3.85;;;2.30;86.10;;;;;;5033682;28;20040;-68
2023/01/25 04:44:31;;;;;;;8.95;4.32;;;2.20;86.00;;;;;;5029710;28;20030;-68
2023/01/25 04:46:57;;;;;;;9.85;4.00;;;2.30;86.00;;;;;;5031266;28;20071;-67
2023/01/25 04:49:22;;;;;;;6.85;3.30;;;2.20;85.90;;;;;;5033275;28;20017;-67
2023/01/25 04:51:48;;;;;;;5.20;2.40;;;2.20;85.90;;;;;;5032030;28;20038;-67
2023/01/25 04:54:13;;;;;;;4.95;3.10;;;2.30;85.90;;;;;;5036427;28;20017;-69
2023/01/25 04:56:39;;;;;;;5.75;2.92;;;2.30;85.80;;;;;;5027499;28;20036;-68
2023/01/25 04:59:04;;;;;;;14.90;6.45;;;2.30;85.80;;;;;;5033145;28;20022;-66
2023/01/25 05:01:32;;;;;;;7.80;3.88;;;2.30;85.80;;;;;;5028559;28;20109;-68
2023/01/25 05:03:58;;;;;;;5.55;2.80;;;2.20;85.70;;;;;;5034277;28;20083;-69
2023/01/25 05:06:23;;;;;;;4.88;2.45;;;2.30;85.90;;;;;;5029398;28;20476;-67
2023/01/25 05:08:49;;;;;;;7.03;3.05;;;2.30;85.80;;;;;;5033377;28;20122;-67
2023/01/25 05:11:14;;;;;;;7.32;3.45;;;2.10;85.40;;;;;;5029699;28;20037;-69
2023/01/25 05:13:40;;;;;;;8.43;3.97;;;2.00;85.50;;;;;;5032288;28;20033;-69
2023/01/25 05:16:06;;;;;;;6.35;3.15;;;2.00;86.20;;;;;;5030660;28;20037;-68
2023/01/25 05:18:31;;;;;;;8.32;4.40;;;2.00;86.40;;;;;;5032368;28;20075;-67
2023/01/25 05:20:57;;;;;;;6.93;3.47;;;2.10;86.40;;;;;;5028978;28;20496;-70
2023/01/25 05:23:22;;;;;;;6.60;3.45;;;2.10;86.40;;;;;;5028265;28;20476;-69
2023/01/25 05:28:31;;;;;;;5.40;2.03;;;2.10;86.20;;;;;;5029953;28;20045;-67
2023/01/25 05:30:57;;;;;;;6.68;3.25;;;2.10;86.00;;;;;;5029660;28;20033;-68
2023/01/25 05:33:22;;;;;;;10.45;3.83;;;2.00;85.90;;;;;;5030306;28;20036;-69
2023/01/25 05:35:48;;;;;;;7.32;3.50;;;1.90;86.10;;;;;;5030151;28;20029;-68
2023/01/25 05:38:14;;;;;;;7.80;4.10;;;2.00;86.50;;;;;;5029946;28;20028;-68
2023/01/25 05:40:39;;;;;;;6.88;3.55;;;2.00;86.50;;;;;;5029207;28;20033;-68
2023/01/25 05:43:05;;;;;;;7.47;3.55;;;2.10;86.50;;;;;;5031165;28;20552;-69
2023/01/25 05:45:30;;;;;;;8.82;4.55;;;2.10;86.30;;;;;;5030722;28;20457;-66
2023/01/25 05:47:57;;;;;;;5.20;2.95;;;2.10;86.20;;;;;;5029068;28;20395;-66
2023/01/25 05:50:24;;;;;;;8.95;4.25;;;2.10;86.10;;;;;;5030149;28;20484;-66
2023/01/25 05:52:50;;;;;;;5.20;3.03;;;2.00;85.90;;;;;;5028805;28;20036;-66
2023/01/25 05:55:15;;;;;;;13.85;5.50;;;2.10;86.20;;;;;;5030090;28;20025;-68
2023/01/25 05:57:41;;;;;;;10.60;5.10;;;2.10;86.00;;;;;;5027056;28;20121;-67
2023/01/25 06:00:08;;;;;;;13.73;6.07;;;2.00;85.80;;;;;;5032062;28;20032;-68
2023/01/25 06:02:33;;;;;;;8.13;3.95;;;1.90;85.90;;;;;;5027777;28;20037;-68
2023/01/25 06:04:59;;;;;;;7.18;3.00;;;2.00;86.20;;;;;;5029434;28;20075;-66
2023/01/25 06:07:25;;;;;;;6.03;3.22;;;2.00;85.90;;;;;;5027491;28;20030;-67
2023/01/25 06:09:50;;;;;;;12.95;5.75;;;2.00;85.90;;;;;;5030052;28;20026;-67
2023/01/25 06:12:20;;;;;;;8.05;3.55;;;2.00;85.90;;;;;;5032477;28;20033;-67
2023/01/25 06:14:46;;;;;;;6.97;2.80;;;2.10;86.10;;;;;;5027429;28;20460;-66
2023/01/25 06:17:12;;;;;;;6.25;3.05;;;2.10;86.10;;;;;;5015519;28;20161;-68
2023/01/25 06:19:37;;;;;;;4.70;2.53;;;2.10;86.00;;;;;;5025337;28;20029;-66
2023/01/25 06:22:03;;;;;;;5.78;2.75;;;2.20;86.00;;;;;;5027428;28;20025;-66
2023/01/25 06:24:28;;;;;;;4.10;2.00;;;2.20;86.10;;;;;;5031414;28;20034;-66
2023/01/25 06:26:54;;;;;;;4.55;2.40;;;2.30;86.10;;;;;;5022796;28;20029;-65
2023/01/25 06:29:19;;;;;;;4.97;2.90;;;2.30;86.10;;;;;;5029028;28;20025;-68
2023/01/25 06:31:45;;;;;;;3.65;2.13;;;2.30;86.10;;;;;;5034055;28;20031;-68
2023/01/25 06:34:10;;;;;;;4.18;2.67;;;2.30;86.00;;;;;;5028497;28;20092;-67
2023/01/25 06:36:36;;;;;;;5.15;3.03;;;2.30;86.10;;;;;;5027211;28;20137;-66
2023/01/25 06:39:02;;;;;;;4.78;2.42;;;2.40;86.20;;;;;;5031881;28;20025;-67
2023/01/25 06:41:28;;;;;;;2.80;1.80;;;2.40;86.10;;;;;;5029170;28;20072;-68
2023/01/25 06:43:54;;;;;;;5.40;3.15;;;2.40;86.10;;;;;;5030051;28;20495;-67
2023/01/25 06:46:20;;;;;;;3.78;2.22;;;2.30;86.10;;;;;;5028857;28;20395;-67
2023/01/25 06:48:46;;;;;;;6.47;2.75;;;2.40;86.10;;;;;;5029574;28;20028;-67
2023/01/25 06:51:13;;;;;;;4.50;2.35;;;2.40;86.00;;;;;;5032405;28;20033;-66
2023/01/25 06:53:42;;;;;;;4.10;2.35;;;2.40;86.00;;;;;;5030327;28;20025;-68
2023/01/25 06:56:19;;;;;;;5.70;2.75;;;2.40;86.00;;;;;;5027059;28;20029;-67
2023/01/25 06:58:45;;;;;;;5.65;2.97;;;2.40;86.00;;;;;;5027098;28;20454;-68
2023/01/25 07:01:18;;;;;;;3.72;2.17;;;2.40;85.90;;;;;;5029782;28;20026;-67
2023/01/25 07:03:50;;;;;;;4.43;2.30;;;2.40;85.90;;;;;;5027831;28;20021;-67
2023/01/25 07:06:16;;;;;;;8.23;4.20;;;2.40;85.90;;;;;;5026232;28;20654;-67
2023/01/25 07:08:42;;;;;;;4.38;2.80;;;2.30;85.90;;;;;;5025440;28;20653;-68
2023/01/25 07:11:12;;;;;;;5.13;2.60;;;2.40;86.00;;;;;;5026653;28;20156;-69
2023/01/25 07:13:42;;;;;;;5.88;2.70;;;2.40;85.90;;;;;;5029857;28;20029;-68
2023/01/25 07:16:11;;;;;;;5.55;2.65;;;2.30;85.80;;;;;;5031965;28;20017;-67
2023/01/25 07:18:37;;;;;;;5.10;2.83;;;2.30;85.80;;;;;;5027747;28;20087;-67
2023/01/25 07:21:14;;;;;;;4.82;2.83;;;2.30;85.90;;;;;;5027889;28;20021;-66
2023/01/25 07:23:40;;;;;;;4.50;2.42;;;2.30;86.10;;;;;;5031690;28;20029;-69
2023/01/25 07:26:15;;;;;;;6.10;3.30;;;2.30;86.10;;;;;;5027386;28;20059;-67
2023/01/25 07:28:41;;;;;;;5.88;2.67;;;2.20;86.10;;;;;;5031170;28;20032;-68
2023/01/25 07:31:07;;;;;;;4.15;2.42;;;2.20;86.00;;;;;;5030960;28;20387;-67
2023/01/25 07:33:33;;;;;;;5.25;2.55;;;2.20;86.10;;;;;;5027211;28;20522;-68
2023/01/25 07:36:03;;;;;;;5.05;2.38;;;2.20;86.20;;;;;;5027978;28;20076;-68
2023/01/25 07:38:28;;;;;;;6.65;3.10;;;2.20;86.20;;;;;;5025279;28;21381;-68
2023/01/25 07:40:54;;;;;;;6.93;3.38;;;2.30;86.20;;;;;;5031971;28;20055;-67
2023/01/25 07:43:20;;;;;;;4.22;2.40;;;2.20;86.00;;;;;;5036042;28;20044;-67
2023/01/25 07:45:49;;;;;;;6.32;2.85;;;2.20;86.00;;;;;;5035545;28;20373;-68
2023/01/25 07:48:16;;;;;;;6.05;2.90;;;2.20;85.90;;;;;;5031192;28;20037;-67
2023/01/25 07:50:45;;;;;;;7.10;3.30;;;2.10;86.10;;;;;;5031665;28;20079;-69
2023/01/25 07:53:14;;;;;;;6.20;2.85;;;2.10;86.00;;;;;;5028054;28;20111;-68
2023/01/25 07:55:40;;;;;;;5.50;3.05;;;2.10;86.30;;;;;;5034377;28;20017;-67
2023/01/25 07:58:05;;;;;;;7.95;3.13;;;2.10;86.30;;;;;;5031686;28;20596;-68
2023/01/25 08:00:31;;;;;;;6.82;3.55;;;2.10;86.20;;;;;;5032227;28;20518;-69
2023/01/25 08:02:56;;;;;;;6.32;3.40;;;2.10;86.20;;;;;;5029179;28;20034;-68
2023/01/25 08:05:24;;;;;;;7.18;2.90;;;2.10;86.30;;;;;;5029190;28;20022;-69
2023/01/25 08:07:49;;;;;;;6.05;2.80;;;2.10;86.20;;;;;;5028527;28;20026;-69
2023/01/25 08:10:15;;;;;;;5.68;2.88;;;2.10;86.20;;;;;;5033091;28;20039;-69
2023/01/25 08:12:45;;;;;;;5.90;3.00;;;2.10;86.40;;;;;;5032645;28;20033;-69
2023/01/25 08:15:11;;;;;;;12.60;5.97;;;2.10;86.20;;;;;;5029080;28;20101;-67
2023/01/25 08:17:37;;;;;;;10.57;4.78;;;2.00;85.90;;;;;;5031337;28;20040;-68
2023/01/25 08:20:03;;;;;;;7.70;3.42;;;2.00;86.10;;;;;;5029559;28;20017;-70
2023/01/25 08:22:29;;;;;;;6.88;3.13;;;2.00;86.00;;;;;;5032087;28;20092;-68
2023/01/25 08:24:55;;;;;;;6.30;3.00;;;2.00;86.10;;;;;;5029293;28;20101;-68
2023/01/25 08:27:21;;;;;;;7.95;3.38;;;2.10;86.20;;;;;;5021597;28;20056;-67
2023/01/25 08:29:49;;;;;;;5.05;2.38;;;2.10;86.30;;;;;;5031364;28;20505;-69
2023/01/25 08:32:15;;;;;;;5.93;2.90;;;2.10;86.30;;;;;;5030635;28;20025;-68
2023/01/25 08:34:40;;;;;;;6.60;2.72;;;2.20;86.30;;;;;;5032184;28;20075;-68
2023/01/25 08:37:06;;;;;;;4.70;2.60;;;2.20;86.20;;;;;;5031186;28;20534;-69
2023/01/25 08:39:31;;;;;;;7.70;3.13;;;2.20;86.00;;;;;;5031357;28;20476;-70
2023/01/25 08:41:57;;;;;;;8.60;4.22;;;2.20;85.90;;;;;;5030879;28;20057;-70
2023/01/25 08:44:24;;;;;;;7.43;3.10;;;2.20;85.90;;;;;;5031537;28;20036;-68
2023/01/25 08:46:50;;;;;;;5.93;3.03;;;2.20;85.80;;;;;;5031095;28;20052;-69
2023/01/25 08:49:16;;;;;;;6.72;3.03;;;2.20;85.80;;;;;;5033664;28;20065;-70
2023/01/25 08:51:41;;;;;;;11.88;4.82;;;2.10;85.90;;;;;;5025446;28;20029;-68
2023/01/25 08:54:10;;;;;;;6.57;3.38;;;2.10;86.00;;;;;;5034223;28;20540;-68
2023/01/25 08:56:37;;;;;;;8.88;3.83;;;2.20;86.20;;;;;;5026857;28;20487;-69
2023/01/25 08:59:03;;;;;;;5.43;2.85;;;2.20;86.00;;;;;;5033779;28;20395;-69
2023/01/25 09:01:28;;;;;;;6.93;2.92;;;2.20;86.00;;;;;;5030259;28;20021;-69
2023/01/25 09:03:54;;;;;;;7.95;2.80;;;2.30;86.00;;;;;;5030748;28;20058;-68
2023/01/25 09:06:20;;;;;;;10.55;4.55;;;2.30;86.00;;;;;;5031544;28;20029;-68
2023/01/25 09:08:46;;;;;;;5.25;3.03;;;2.30;85.90;;;;;;5033650;28;20030;-69
2023/01/25 09:11:14;;;;;;;10.73;4.47;;;2.20;85.90;;;;;;5030653;28;20033;-70
2023/01/25 09:13:43;;;;;;;15.05;5.18;;;2.20;85.80;;;;;;5031705;28;20029;-70
2023/01/25 09:16:11;;;;;;;10.30;4.30;;;2.20;85.80;;;;;;5032997;28;20025;-67
2023/01/25 09:18:38;;;;;;;7.55;3.70;;;2.10;85.90;;;;;;5031412;28;20017;-68
2023/01/25 09:21:22;;;;;;;7.60;3.13;;;2.10;86.00;;;;;;5029831;28;20022;-69
2023/01/25 09:23:49;;;;;;;9.48;4.15;;;2.10;86.00;;;;;;5029096;28;20107;-69
2023/01/25 09:26:14;;;;;;;11.95;3.92;;;2.20;86.00;;;;;;5031032;28;20511;-67
2023/01/25 09:28:41;;;;;;;10.60;4.72;;;2.10;85.90;;;;;;5034520;28;20037;-70
2023/01/25 09:31:09;;;;;;;11.38;4.75;;;2.10;85.80;;;;;;5045102;28;20025;-67
2023/01/25 09:33:36;;;;;;;10.20;4.53;;;2.10;85.90;;;;;;5030377;28;20036;-69
2023/01/25 09:36:02;;;;;;;11.30;4.25;;;2.10;85.80;;;;;;5032116;28;20030;-67
2023/01/25 09:38:27;;;;;;;11.40;4.85;;;2.10;85.70;;;;;;5032459;28;20021;-67
2023/01/25 09:41:31;;;;;;;10.52;4.00;;;2.00;85.80;;;;;;5027162;28;20035;-65
2023/01/25 09:44:23;;;;;;;5.75;3.17;;;2.00;85.90;;;;;;5032183;28;20502;-67
2023/01/25 09:46:52;;;;;;;4.25;2.35;;;2.10;86.00;;;;;;5027837;28;20040;-67
2023/01/25 09:49:38;;;;;;;8.23;2.95;;;2.10;85.90;;;;;;5030844;28;20029;-67
2023/01/25 09:52:13;;;;;;;6.78;3.17;;;2.10;85.80;;;;;;5031790;28;20033;-69
2023/01/25 09:54:41;;;;;;;9.68;3.75;;;2.10;85.80;;;;;;5029863;28;20041;-69
2023/01/25 09:57:16;;;;;;;6.55;2.72;;;2.10;85.70;;;;;;5025924;28;20022;-69
2023/01/25 09:59:44;;;;;;;6.22;3.42;;;2.20;85.80;;;;;;5027408;28;20633;-70
2023/01/25 10:02:18;;;;;;;4.57;2.72;;;2.20;85.60;;;;;;5029660;28;20025;-69
2023/01/25 10:04:46;;;;;;;7.15;3.10;;;2.20;85.60;;;;;;5028672;28;20052;-68
2023/01/25 10:07:22;;;;;;;8.10;3.78;;;2.10;85.40;;;;;;5026799;28;20027;-69
2023/01/25 10:09:58;;;;;;;6.15;3.30;;;2.10;85.60;;;;;;5030288;28;20438;-69
2023/01/25 10:12:26;;;;;;;9.30;4.13;;;2.10;85.70;;;;;;5025517;28;20021;-69
2023/01/25 10:14:53;;;;;;;5.30;2.88;;;2.20;85.80;;;;;;5030872;28;20033;-67
2023/01/25 10:17:18;;;;;;;9.35;3.50;;;2.20;85.60;;;;;;5026897;28;20029;-70
2023/01/25 10:20:05;;;;;;;5.75;2.53;;;2.30;85.60;;;;;;5028282;28;20029;-69
2023/01/25 10:22:42;;;;;;;7.82;2.90;;;2.30;85.50;;;;;;5029134;28;20062;-67
2023/01/25 10:25:33;;;;;;;7.43;3.15;;;2.40;85.50;;;;;;5023620;28;20025;-67
2023/01/25 10:28:34;;;;;;;8.70;3.60;;;2.30;85.20;;;;;;5028367;28;20188;-69
2023/01/25 10:31:09;;;;;;;7.00;3.47;;;2.30;85.30;;;;;;5024923;28;20421;-69
2023/01/25 10:33:39;;;;;;;13.38;4.85;;;2.20;85.30;;;;;;5026667;28;20025;-68
2023/01/25 10:36:05;;;;;;;8.43;4.47;;;2.20;85.50;;;;;;5023916;28;20025;-68
2023/01/25 10:38:41;;;;;;;6.97;3.35;;;2.10;85.50;;;;;;5030634;28;20117;-67
2023/01/25 10:41:14;;;;;;;9.88;3.97;;;2.20;85.80;;;;;;5027419;28;20755;-69
2023/01/25 10:43:40;;;;;;;10.25;4.13;;;2.20;85.90;;;;;;5031269;28;20908;-69
2023/01/25 10:46:19;;;;;;;5.07;2.35;;;2.20;85.90;;;;;;5024522;28;20049;-68
2023/01/25 10:48:44;;;;;;;7.47;3.35;;;2.30;85.80;;;;;;5028598;28;20484;-66
2023/01/25 10:51:27;;;;;;;11.10;3.67;;;2.30;85.60;;;;;;5026882;28;20084;-68
2023/01/25 10:54:00;;;;;;;5.50;2.45;;;2.40;85.60;;;;;;5028707;28;20017;-67
2023/01/25 10:56:27;;;;;;;7.47;3.08;;;2.40;86.00;;;;;;5028430;28;20060;-68
2023/01/25 10:59:24;;;;;;;20.50;7.40;;;2.40;85.50;;;;;;5024208;28;20120;-68
2023/01/25 11:01:51;;;;;;;11.60;5.05;;;2.40;85.20;;;;;;5025198;28;20068;-69
2023/01/25 11:04:35;;;;;;;7.72;3.60;;;2.30;85.20;;;;;;5027586;28;20017;-69
2023/01/25 11:07:04;;;;;;;15.43;6.70;;;2.30;85.40;;;;;;5029818;28;20400;-68
2023/01/25 11:09:32;;;;;;;15.60;4.93;;;2.30;85.30;;;;;;5026501;28;20056;-68
2023/01/25 11:12:06;;;;;;;7.63;3.38;;;2.20;85.10;;;;;;5028716;28;20048;-67
2023/01/25 11:14:33;;;;;;;8.73;4.03;;;2.20;85.30;;;;;;5029824;28;20037;-69
2023/01/25 11:17:01;;;;;;;12.38;5.22;;;2.30;85.40;;;;;;5029031;28;20033;-69
2023/01/25 11:19:27;;;;;;;20.27;7.72;;;2.30;85.50;;;;;;5028359;28;20087;-70
2023/01/25 11:21:54;;;;;;;18.95;7.28;;;2.30;85.30;;;;;;5031410;28;20022;-67
2023/01/25 11:24:24;;;;;;;15.38;6.00;;;2.10;85.10;;;;;;5030434;28;20021;-70
2023/01/25 11:26:49;;;;;;;13.93;5.63;;;2.00;85.10;;;;;;5028938;28;20044;-69
2023/01/25 11:29:20;;;;;;;15.38;6.00;;;2.00;85.90;;;;;;5028932;28;20551;-68
2023/01/25 11:31:54;;;;;;;12.10;5.28;;;2.00;85.30;;;;;;5028751;28;20034;-70
2023/01/25 11:34:27;;;;;;;7.82;3.72;;;2.10;85.50;;;;;;5036298;28;20090;-68
2023/01/25 11:37:22;;;;;;;6.97;3.20;;;2.20;85.40;;;;;;5026519;28;20033;-68
2023/01/25 11:40:20;;;;;;;6.35;3.30;;;2.20;85.40;;;;;;5027760;28;20041;-69
2023/01/25 11:43:10;;;;;;;7.97;3.53;;;2.30;85.50;;;;;;5028688;28;20542;-68
2023/01/25 11:45:47;;;;;;;5.45;2.90;;;2.30;85.40;;;;;;5025707;28;20477;-68
2023/01/25 11:48:30;;;;;;;7.35;2.95;;;2.40;85.40;;;;;;5027165;28;20060;-68
2023/01/25 11:51:10;;;;;;;13.73;5.28;;;2.40;85.40;;;;;;5024753;28;20072;-67
2023/01/25 11:54:06;;;;;;;16.88;6.60;;;2.40;85.20;;;;;;5032827;28;20025;-67
2023/01/25 11:57:04;;;;;;;15.05;6.10;;;2.40;85.00;;;;;;5025661;28;20025;-69
2023/01/25 11:59:35;;;;;;;9.00;3.80;;;2.30;85.10;;;;;;5024377;28;20628;-68
2023/01/25 12:02:32;;;;;;;10.02;4.20;;;2.30;85.10;;;;;;5029371;28;20703;-68
2023/01/25 12:05:16;;;;;;;6.43;2.90;;;2.30;85.00;;;;;;5028263;28;20084;-67
2023/01/25 12:08:13;;;;;;;7.75;3.63;;;2.30;84.90;;;;;;5024378;28;20100;-67
2023/01/25 12:10:58;;;;;;;8.95;3.42;;;2.30;84.90;;;;;;5025622;28;20029;-67
2023/01/25 12:13:39;;;;;;;10.98;3.35;;;2.30;85.10;;;;;;5033277;28;20057;-68
2023/01/25 12:16:17;;;;;;;15.98;6.25;;;2.20;85.10;;;;;;5025833;28;20028;-66
2023/01/25 12:19:01;;;;;;;11.75;4.10;;;2.20;85.20;;;;;;5026817;28;20113;-67
2023/01/25 12:21:51;;;;;;;6.30;2.72;;;2.20;85.90;;;;;;5023542;28;20021;-68
2023/01/25 12:24:31;;;;;;;6.55;2.60;;;2.20;85.30;;;;;;5027191;28;20033;-68
2023/01/25 12:27:07;;;;;;;10.63;4.35;;;2.30;85.40;;;;;;5026906;28;20050;-68
2023/01/25 12:29:46;;;;;;;15.82;5.85;;;2.40;85.40;;;;;;5028340;28;20026;-68
2023/01/25 12:32:38;;;;;;;12.18;4.95;;;2.40;85.30;;;;;;5030068;28;20029;-68
2023/01/25 12:35:35;;;;;;;11.87;5.03;;;2.30;85.20;;;;;;5029149;28;20590;-68
2023/01/25 12:38:13;;;;;;;10.90;4.53;;;2.30;85.10;;;;;;5031044;28;20415;-68
2023/01/25 12:40:43;;;;;;;15.02;5.15;;;2.30;85.20;;;;;;5030002;28;20547;-68
2023/01/25 12:43:17;;;;;;;16.38;5.70;;;2.20;85.10;;;;;;5031105;28;20103;-67
2023/01/25 12:45:45;;;;;;;11.70;4.55;;;2.30;85.40;;;;;;5030756;28;20024;-67
2023/01/25 12:48:25;;;;;;;10.63;3.78;;;2.20;85.40;;;;;;5035476;28;20082;-68
2023/01/25 12:50:55;;;;;;;7.72;3.20;;;2.20;85.60;;;;;;5031156;28;20408;-68
2023/01/25 12:53:48;;;;;;;15.73;5.60;;;2.20;85.60;;;;;;5031773;28;20033;-67
2023/01/25 12:56:30;;;;;;;10.50;3.90;;;2.20;85.80;;;;;;5026317;28;20053;-69
2023/01/25 12:59:13;;;;;;;8.10;3.30;;;2.20;85.90;;;;;;5024637;28;20029;-69
2023/01/25 13:01:55;;;;;;;9.30;3.83;;;2.30;85.90;;;;;;5030404;28;20280;-67
2023/01/25 13:04:30;;;;;;;9.40;4.07;;;2.40;85.80;;;;;;5046379;28;20025;-68
2023/01/25 13:07:19;;;;;;;11.38;4.32;;;2.30;85.50;;;;;;5031486;28;20056;-69
2023/01/25 13:10:20;;;;;;;23.15;9.40;;;2.30;85.60;;;;;;5030130;28;20046;-69
2023/01/25 13:13:01;;;;;;;20.23;7.15;;;2.20;85.60;;;;;;5019659;28;20033;-66